EVVA

Ventspils International Airport

Ventspils, Latvia
METAR EVVA 232250Z AUTO 16012KT 9999 FEW012 OVC020 M04/M06 Q1020
Observed Flight Rules
Jan-23 @ 22:50 UTC (54 minutes ago) Marginal Visual Flight Rules
Wind Visibility Clouds
160° at 12 knots 10,000+ meters
  • Few at 1,200' AGL
  • Overcast at 2,000' AGL
Temperatures Readings
Current -4°C / 25°F
Dewpoint -6°C / 21°F
Humidity 86%
Altimeter 30.12" Hg
Pressure 1020 hPa
Elevation 6
METAR EVVA 232250Z AUTO 16012KT 9999 FEW012 OVC020 M04/M06 Q1020
Observed Flight Rules
Jan-23 @ 22:50 UTC
(54 minutes ago)
MVFR
Wind Visibility
160° at 12 knots 10,000+ meters
Clouds
  • Few at 1,200' AGL
  • Overcast at 2,000' AGL
Temperature Dewpoint
-4°C / 25°F -6°C / 21°F
Humidity Altimeter Pressure
86% 30.12" Hg 1020 hPa